createdAt,value
2023-04-26T00:03:21.603Z,16.79
2023-04-26T00:06:40.852Z,17.62
2023-04-26T00:09:44.692Z,17.86
2023-04-26T00:13:59.681Z,18.41
2023-04-26T00:16:26.055Z,18.59
2023-04-26T00:19:02.931Z,18.63
2023-04-26T00:21:44.862Z,18.39
2023-04-26T00:29:05.678Z,18.51
2023-04-26T00:32:13.627Z,18.83
2023-04-26T00:38:45.257Z,18.79
2023-04-26T00:41:46.355Z,18.79
2023-04-26T00:44:17.935Z,17.62
2023-04-26T00:47:10.752Z,17.70
2023-04-26T00:52:52.378Z,19.00
2023-04-26T00:55:29.410Z,18.49
2023-04-26T00:58:21.459Z,18.98
2023-04-26T01:01:04.627Z,18.79
2023-04-26T01:03:37.456Z,18.31
2023-04-26T01:06:22.342Z,18.59
2023-04-26T01:09:14.151Z,18.92
2023-04-26T01:11:45.986Z,18.74
2023-04-26T01:14:19.346Z,18.60
2023-04-26T01:17:30.775Z,18.68
2023-04-26T01:21:03.239Z,18.08
2023-04-26T01:23:55.669Z,18.24
2023-04-26T01:29:41.567Z,18.36
2023-04-26T01:32:19.560Z,16.80
2023-04-26T01:34:54.450Z,17.70
2023-04-26T01:38:09.385Z,17.76
2023-04-26T01:40:47.930Z,17.68
2023-04-26T01:43:23.020Z,17.62
2023-04-26T01:46:25.630Z,17.85
2023-04-26T01:48:58.447Z,17.27
2023-04-26T01:51:33.296Z,17.54
2023-04-26T01:54:21.522Z,17.51
2023-04-26T01:56:54.317Z,17.50
2023-04-26T01:59:25.142Z,17.45
2023-04-26T02:02:20.024Z,17.37
2023-04-26T02:05:04.864Z,16.64
2023-04-26T02:07:34.912Z,16.02
2023-04-26T02:10:04.372Z,15.17
2023-04-26T02:12:33.572Z,15.17
2023-04-26T02:15:06.234Z,15.19
2023-04-26T02:17:38.753Z,15.01
2023-04-26T02:20:11.968Z,15.06
2023-04-26T02:22:44.174Z,15.68
2023-04-26T02:25:20.424Z,14.82
2023-04-26T02:27:49.767Z,15.23
2023-04-26T02:30:18.794Z,15.17
2023-04-26T02:32:48.033Z,15.25
2023-04-26T02:35:20.533Z,14.99
2023-04-26T02:37:50.623Z,15.34
2023-04-26T02:40:21.374Z,15.34
2023-04-26T02:42:51.570Z,15.28
2023-04-26T02:45:38.209Z,15.29
2023-04-26T02:49:41.129Z,15.12
2023-04-26T02:52:31.319Z,15.05
2023-04-26T02:55:08.834Z,14.81
2023-04-26T02:57:43.537Z,14.72
2023-04-26T03:00:38.477Z,14.67
2023-04-26T03:03:08.971Z,14.56
2023-04-26T03:17:33.408Z,13.93
2023-04-26T03:20:20.329Z,13.82
2023-04-26T03:23:46.028Z,13.71
2023-04-26T03:26:28.652Z,13.53
2023-04-26T03:39:07.651Z,13.07
2023-04-26T03:42:34.224Z,13.04
2023-04-26T03:46:09.460Z,13.02
2023-04-26T03:49:02.323Z,12.87
2023-04-26T04:04:34.062Z,12.40
2023-04-26T04:07:11.072Z,12.33
2023-04-26T04:10:14.616Z,12.29
2023-04-26T04:23:21.440Z,11.96
2023-04-26T04:31:15.916Z,11.75
2023-04-26T04:38:34.914Z,11.57
2023-04-26T05:09:24.000Z,11.03
2023-04-26T05:12:45.974Z,10.98
2023-04-26T05:20:33.971Z,10.93
2023-04-26T05:40:54.720Z,10.65
2023-04-26T05:44:08.307Z,10.57
2023-04-26T05:47:24.889Z,10.49
2023-04-26T05:54:44.110Z,10.31
2023-04-26T05:57:14.895Z,10.25
2023-04-26T05:59:50.671Z,10.22
2023-04-26T06:02:21.156Z,10.20
2023-04-26T06:05:01.293Z,10.14
2023-04-26T06:07:36.341Z,10.11
2023-04-26T06:10:22.084Z,10.06
2023-04-26T06:13:01.129Z,10.03
2023-04-26T06:15:44.774Z,9.98
2023-04-26T06:18:19.381Z,9.94
2023-04-26T06:20:53.491Z,9.90
2023-04-26T06:23:27.955Z,9.86
2023-04-26T06:26:06.919Z,9.78
2023-04-26T06:28:42.086Z,9.75
2023-04-26T06:31:17.508Z,9.84
2023-04-26T06:33:56.242Z,9.85
2023-04-26T06:36:50.050Z,9.82
2023-04-26T06:39:30.766Z,9.66
2023-04-26T06:42:01.592Z,9.61
2023-04-26T06:44:54.354Z,9.50
2023-04-26T06:47:33.399Z,9.58
2023-04-26T06:50:10.077Z,9.65
2023-04-26T06:52:55.186Z,9.62
2023-04-26T06:55:48.215Z,9.59
2023-04-26T06:58:32.574Z,9.57
2023-04-26T07:01:07.731Z,9.49
2023-04-26T07:03:47.505Z,9.29
2023-04-26T07:06:25.424Z,9.22
2023-04-26T07:09:17.038Z,9.15
2023-04-26T07:11:53.013Z,9.09
2023-04-26T07:14:36.441Z,9.02
2023-04-26T07:17:09.593Z,9.02
2023-04-26T07:19:44.246Z,8.96
2023-04-26T07:22:29.094Z,9.00
2023-04-26T07:25:39.908Z,9.03
2023-04-26T07:27:54.069Z,8.98
2023-04-26T07:30:25.452Z,8.99
2023-04-26T07:33:01.473Z,8.93
2023-04-26T07:35:37.816Z,9.02
2023-04-26T07:38:11.145Z,9.03
2023-04-26T07:40:46.245Z,9.13
2023-04-26T07:43:18.577Z,8.91
2023-04-26T07:45:59.240Z,8.78
2023-04-26T07:48:36.794Z,8.48
2023-04-26T07:51:23.934Z,8.55
2023-04-26T07:53:54.469Z,8.65
2023-04-26T07:56:30.702Z,8.72
2023-04-26T07:59:00.465Z,8.79
2023-04-26T08:01:41.738Z,8.75
2023-04-26T08:04:14.713Z,8.67
2023-04-26T08:06:47.217Z,8.42
2023-04-26T08:09:20.068Z,8.26
2023-04-26T08:12:02.725Z,8.04
2023-04-26T08:14:36.665Z,8.31
2023-04-26T08:17:10.568Z,8.27
2023-04-26T08:19:41.473Z,7.99
2023-04-26T08:22:14.899Z,8.04
2023-04-26T08:24:51.935Z,7.94
2023-04-26T08:27:24.191Z,8.20
2023-04-26T08:29:54.311Z,8.35
2023-04-26T08:32:28.930Z,8.43
2023-04-26T08:35:01.985Z,8.23
2023-04-26T08:37:37.861Z,8.25
2023-04-26T08:40:17.153Z,8.19
2023-04-26T08:42:55.699Z,8.03
2023-04-26T08:45:27.925Z,8.20
2023-04-26T08:48:15.614Z,8.20
2023-04-26T08:50:48.974Z,8.08
2023-04-26T08:53:21.309Z,8.07
2023-04-26T08:55:54.034Z,7.90
2023-04-26T08:58:27.377Z,7.90
2023-04-26T09:01:05.612Z,7.70
2023-04-26T09:03:36.921Z,7.55
2023-04-26T09:06:25.523Z,7.73
2023-04-26T09:09:11.769Z,7.94
2023-04-26T09:12:08.452Z,7.86
2023-04-26T09:14:42.513Z,7.90
2023-04-26T09:17:45.231Z,7.98
2023-04-26T09:20:24.552Z,7.92
2023-04-26T09:23:09.921Z,7.83
2023-04-26T09:25:54.046Z,7.56
2023-04-26T09:28:41.687Z,7.87
2023-04-26T09:35:52.273Z,7.73
2023-04-26T09:38:12.313Z,7.82
2023-04-26T09:40:58.557Z,7.56
2023-04-26T09:43:53.968Z,7.30
2023-04-26T09:46:41.282Z,7.31
2023-04-26T09:49:23.329Z,7.34
2023-04-26T09:52:41.043Z,7.33
2023-04-26T09:55:55.918Z,7.20
2023-04-26T09:59:14.410Z,7.47
2023-04-26T10:01:55.336Z,7.41
2023-04-26T10:04:55.556Z,7.25
2023-04-26T10:07:56.684Z,7.58
2023-04-26T10:10:36.989Z,7.71
2023-04-26T10:13:07.888Z,7.66
2023-04-26T10:15:38.304Z,7.41
2023-04-26T10:18:28.574Z,7.07
2023-04-26T10:21:35.256Z,6.89
2023-04-26T10:24:11.104Z,6.61
2023-04-26T10:26:58.092Z,6.60
2023-04-26T10:29:59.020Z,7.00
2023-04-26T10:32:32.941Z,6.85
2023-04-26T10:35:25.250Z,6.97
2023-04-26T10:38:04.580Z,7.06
2023-04-26T10:40:40.746Z,6.88
2023-04-26T10:43:23.315Z,6.67
2023-04-26T10:46:44.192Z,6.83
2023-04-26T10:49:30.587Z,6.99
2023-04-26T10:52:25.606Z,6.83
2023-04-26T10:55:05.087Z,6.80
2023-04-26T10:58:06.137Z,6.86
2023-04-26T11:00:39.558Z,6.65
2023-04-26T11:03:19.942Z,6.67
2023-04-26T11:06:00.391Z,6.95
2023-04-26T11:08:40.749Z,6.55
2023-04-26T11:11:24.821Z,6.66
2023-04-26T11:13:54.507Z,6.60
2023-04-26T11:16:32.601Z,6.66
2023-04-26T11:19:05.989Z,6.74
2023-04-26T11:21:42.162Z,6.69
2023-04-26T11:24:28.545Z,6.75
2023-04-26T11:27:14.079Z,6.77
2023-04-26T11:29:47.181Z,7.33
2023-04-26T11:32:18.477Z,6.52
2023-04-26T11:34:54.350Z,6.75
2023-04-26T11:37:28.665Z,6.83
2023-04-26T11:40:04.022Z,6.78
2023-04-26T11:42:36.361Z,6.94
2023-04-26T11:45:11.578Z,6.61
2023-04-26T11:47:51.861Z,6.74
2023-04-26T11:50:26.412Z,6.48
2023-04-26T11:53:01.455Z,6.32
2023-04-26T11:55:35.792Z,6.61
2023-04-26T11:58:17.952Z,6.53
2023-04-26T12:01:02.021Z,6.79
2023-04-26T12:03:48.876Z,6.53
2023-04-26T12:06:32.620Z,6.68
2023-04-26T12:09:12.963Z,6.26
2023-04-26T12:11:44.355Z,6.04
2023-04-26T12:14:25.982Z,6.42
2023-04-26T12:17:05.050Z,6.56
2023-04-26T12:19:36.547Z,6.37
2023-04-26T12:22:07.835Z,6.45
2023-04-26T12:24:38.943Z,6.36
2023-04-26T12:27:09.704Z,6.27
2023-04-26T12:29:42.195Z,6.34
2023-04-26T12:32:11.982Z,6.34
2023-04-26T12:34:44.134Z,6.47
2023-04-26T12:37:22.757Z,6.27
2023-04-26T12:39:52.468Z,6.19
2023-04-26T12:42:29.901Z,6.30
2023-04-26T12:44:59.506Z,6.25
2023-04-26T12:47:36.063Z,6.18
2023-04-26T12:50:09.119Z,6.25
2023-04-26T12:52:53.132Z,6.38
2023-04-26T12:55:23.578Z,6.34
2023-04-26T12:57:55.895Z,6.35
2023-04-26T13:00:29.456Z,6.10
2023-04-26T13:03:03.456Z,6.41
2023-04-26T13:05:37.804Z,6.40
2023-04-26T13:08:08.194Z,6.30
2023-04-26T13:10:40.636Z,6.25
2023-04-26T13:13:11.861Z,6.39
2023-04-26T13:15:50.923Z,6.25
2023-04-26T13:18:22.758Z,6.38
2023-04-26T13:20:52.698Z,6.67
2023-04-26T13:23:22.996Z,6.57
2023-04-26T13:25:55.582Z,6.46
2023-04-26T13:28:28.461Z,6.75
2023-04-26T13:30:58.593Z,6.77
2023-04-26T13:33:44.565Z,6.70
2023-04-26T13:36:35.593Z,6.43
2023-04-26T13:39:10.865Z,6.31
2023-04-26T13:41:40.285Z,6.12
2023-04-26T13:44:09.729Z,6.28
2023-04-26T13:46:42.024Z,6.43
2023-04-26T13:49:21.640Z,6.51
2023-04-26T13:52:18.056Z,6.39
2023-04-26T13:54:57.505Z,6.68
2023-04-26T13:57:47.716Z,6.79
2023-04-26T14:00:51.151Z,6.46
2023-04-26T14:03:22.081Z,6.21
2023-04-26T14:06:16.582Z,6.83
2023-04-26T14:15:51.231Z,6.81
2023-04-26T14:18:58.668Z,7.09
2023-04-26T14:21:54.336Z,7.26
2023-04-26T14:24:23.817Z,7.35
2023-04-26T14:27:10.519Z,7.42
2023-04-26T14:29:43.416Z,7.38
2023-04-26T14:32:18.708Z,7.33
2023-04-26T14:34:57.494Z,7.53
2023-04-26T14:37:30.240Z,7.17
2023-04-26T14:40:04.473Z,6.92
2023-04-26T14:42:48.365Z,7.31
2023-04-26T14:45:43.919Z,7.63
2023-04-26T14:48:21.615Z,7.62
2023-04-26T14:51:09.675Z,7.68
2023-04-26T14:53:41.249Z,7.74
2023-04-26T14:56:11.211Z,7.71
2023-04-26T14:58:50.577Z,7.70
2023-04-26T15:01:22.655Z,7.77
2023-04-26T15:03:54.426Z,7.40
2023-04-26T15:06:29.489Z,7.38
2023-04-26T15:09:12.615Z,7.36
2023-04-26T15:11:49.048Z,7.30
2023-04-26T15:14:24.329Z,7.91
2023-04-26T15:17:06.686Z,7.95
2023-04-26T15:19:47.104Z,8.16
2023-04-26T15:22:28.438Z,8.23
2023-04-26T15:25:24.574Z,8.38
2023-04-26T15:28:03.374Z,8.40
2023-04-26T15:31:03.972Z,8.38
2023-04-26T15:33:40.607Z,8.37
2023-04-26T15:36:24.760Z,8.50
2023-04-26T15:39:20.352Z,8.48
2023-04-26T15:42:23.609Z,8.15
2023-04-26T15:45:14.958Z,8.29
2023-04-26T15:47:50.046Z,8.32
2023-04-26T15:50:35.020Z,8.35
2023-04-26T15:53:30.702Z,8.67
2023-04-26T15:56:25.827Z,8.76
2023-04-26T16:02:24.032Z,8.73
2023-04-26T16:04:53.891Z,8.83
2023-04-26T16:07:26.845Z,8.94
2023-04-26T16:10:11.900Z,9.04
2023-04-26T16:12:44.566Z,9.12
2023-04-26T16:16:14.869Z,9.15
2023-04-26T16:19:08.445Z,9.35
2023-04-26T16:21:42.429Z,9.24
2023-04-26T16:24:18.761Z,9.12
2023-04-26T16:27:04.125Z,9.29
2023-04-26T16:29:42.567Z,9.41
2023-04-26T16:32:12.312Z,9.36
2023-04-26T16:35:05.444Z,9.48
2023-04-26T16:37:40.931Z,9.25
2023-04-26T16:40:17.003Z,9.38
2023-04-26T16:42:51.678Z,9.36
2023-04-26T16:48:33.524Z,9.50
2023-04-26T16:51:12.511Z,9.68
2023-04-26T16:53:42.049Z,9.21
2023-04-26T16:56:13.504Z,9.08
2023-04-26T16:58:43.016Z,9.10
2023-04-26T17:01:12.197Z,9.35
2023-04-26T17:03:45.484Z,9.47
2023-04-26T17:06:15.172Z,9.62
2023-04-26T17:08:44.446Z,9.86
2023-04-26T17:11:18.926Z,9.69
2023-04-26T17:13:51.428Z,9.85
2023-04-26T17:16:21.935Z,10.04
2023-04-26T17:18:50.978Z,10.11
2023-04-26T17:21:20.453Z,10.29
2023-04-26T17:23:51.194Z,10.39
2023-04-26T17:26:29.289Z,10.44
2023-04-26T17:29:10.149Z,10.55
2023-04-26T17:31:39.802Z,10.81
2023-04-26T17:34:08.979Z,10.98
2023-04-26T17:36:41.368Z,10.88
2023-04-26T17:39:16.356Z,10.94
2023-04-26T17:41:51.825Z,11.06
2023-04-26T17:44:22.396Z,11.13
2023-04-26T17:47:02.677Z,11.45
2023-04-26T17:49:33.640Z,11.55
2023-04-26T17:52:05.026Z,11.41
2023-04-26T17:54:38.483Z,11.40
2023-04-26T17:57:10.912Z,11.41
2023-04-26T17:59:44.088Z,11.33
2023-04-26T18:02:13.811Z,11.74
2023-04-26T18:04:43.614Z,11.74
2023-04-26T18:07:16.599Z,11.83
2023-04-26T18:09:46.008Z,11.82
2023-04-26T18:12:18.586Z,11.82
2023-04-26T18:14:53.786Z,12.08
2023-04-26T18:17:28.199Z,11.99
2023-04-26T18:20:04.374Z,12.23
2023-04-26T18:22:36.904Z,12.39
2023-04-26T18:25:12.367Z,12.46
2023-04-26T18:28:04.754Z,12.48
2023-04-26T18:31:13.295Z,12.43
2023-04-26T18:34:05.883Z,12.42
2023-04-26T18:36:42.746Z,12.88
2023-04-26T18:39:32.490Z,12.85
2023-04-26T18:42:35.748Z,13.05
2023-04-26T18:45:26.036Z,13.49
2023-04-26T18:48:04.752Z,13.66
2023-04-26T18:54:37.316Z,14.04
2023-04-26T18:57:25.274Z,14.27
2023-04-26T19:00:10.230Z,14.60
2023-04-26T19:03:18.056Z,14.85
2023-04-26T19:05:53.674Z,14.78
2023-04-26T19:08:35.489Z,15.08
2023-04-26T19:14:37.096Z,15.99
2023-04-26T19:17:51.033Z,15.96
2023-04-26T19:21:44.531Z,15.98
2023-04-26T19:24:48.389Z,16.53
2023-04-26T19:33:30.586Z,16.59
2023-04-26T19:52:42.982Z,17.41
2023-04-26T19:55:41.297Z,17.66
2023-04-26T20:00:15.410Z,17.41
2023-04-26T20:06:27.277Z,16.86
2023-04-26T20:09:40.061Z,16.93
2023-04-26T20:12:57.596Z,17.13
2023-04-26T20:16:41.753Z,17.29
2023-04-26T20:32:42.456Z,17.73
2023-04-26T20:40:10.520Z,18.41
2023-04-26T20:46:38.999Z,17.78
2023-04-26T20:57:31.072Z,18.23
2023-04-26T21:05:37.871Z,18.63
2023-04-26T21:08:58.925Z,19.83
2023-04-26T21:43:03.513Z,19.96
2023-04-26T21:46:26.016Z,19.11
2023-04-26T21:49:29.914Z,19.51
2023-04-26T21:55:24.261Z,19.52
2023-04-26T21:58:06.890Z,20.08
2023-04-26T22:00:43.473Z,20.14
2023-04-26T22:03:17.215Z,20.55
2023-04-26T22:09:41.668Z,20.98
2023-04-26T22:13:12.372Z,21.16
2023-04-26T22:15:47.699Z,21.08
2023-04-26T22:18:27.401Z,21.34
2023-04-26T22:25:24.175Z,21.53
2023-04-26T22:28:33.205Z,20.66
2023-04-26T22:31:15.287Z,20.81
2023-04-26T22:33:50.700Z,20.93
2023-04-26T22:36:33.002Z,21.62
2023-04-26T22:39:57.127Z,21.76
2023-04-26T22:42:46.993Z,21.31
2023-04-26T22:45:59.391Z,21.69
2023-04-26T22:48:22.139Z,21.34
2023-04-26T22:50:54.660Z,21.87
2023-04-26T22:53:23.861Z,21.24
2023-04-26T22:55:52.974Z,21.73
2023-04-26T22:58:22.593Z,21.68
2023-04-26T23:00:52.104Z,21.59
2023-04-26T23:03:31.459Z,21.93
2023-04-26T23:06:23.618Z,21.86
2023-04-26T23:09:03.041Z,21.81
2023-04-26T23:11:32.777Z,21.22
2023-04-26T23:14:04.058Z,21.32
2023-04-26T23:16:34.106Z,21.73
2023-04-26T23:19:04.295Z,21.93
2023-04-26T23:21:36.801Z,22.12
2023-04-26T23:24:21.151Z,21.87
2023-04-26T23:26:56.432Z,21.17
2023-04-26T23:29:31.561Z,20.99
2023-04-26T23:32:32.147Z,21.02
2023-04-26T23:41:44.679Z,20.95
2023-04-26T23:44:31.130Z,21.40
2023-04-26T23:47:17.056Z,21.69
2023-04-26T23:49:58.327Z,20.92
